Tiempo atmosférico en la estación meteorológica de Don Benito, Badajoz (273 m.)

Fecha
DESCASC
Temp. máxima en grados centígrados (hora)
DESCASC
Temp. mínima en grados centígrados (hora)
DESCASC
Temp. media en grados centígrados
DESCASC
Racha de viento máxima en m/sg (hora)
DESCASC
Velocidad máxima media en intervalos de 10 minutos(hora)
DESCASC
Precipitaciones diarias en mm
DESCASC
Precipitaciones de 00:00 a 06:00 en mm
DESCASC
Precipitaciones de 06:00 a 12:00 en mm
DESCASC
Precipitaciones de 12:00 a 18:00 en mm
DESCASC
Precipitaciones de 18:00 a 24:00 en mm
DESCASC
17-09-2017 28.5 (16:50) 10.7 (07:10) 19.6 7.5 (16:10) 3.33 (16:10) 0 0 0 0 0
16-09-2017 27.1 (18:10) 10.7 (07:50) 18.9 6.11 (18:00) 2.78 (18:10) 0 0 0 0 0
15-09-2017 27.4 (17:30) 12.5 (08:30) 19.9 10 (14:40) 4.72 (16:20) 0 0 0 0 0
14-09-2017 32.7 (16:20) 16 (00:00) 24.4 7.5 (17:50) 3.61 (16:50) 0 0 0 0 0
13-09-2017 35.4 (16:50) 16.3 (00:00) 25.9 7.22 (16:20) 3.33 (17:10) 0 0 0 0 0
12-09-2017 32.9 (17:00) 15.7 (00:00) 24.3 8.89 (13:40) 3.61 (13:10) 0 0 0 0 0
11-09-2017 34.1 (16:40) 15 (00:00) 24.5 9.17 (18:30) 3.89 (18:20) 0 0 0 0 0
10-09-2017 28.7 (18:20) 11.9 (00:00) 20.3 12.78 (03:30) 5.28 (00:40) 0 0 0 0 0
09-09-2017 28.5 (16:50) 15 (00:00) 21.8 12.78 (17:20) 6.11 (14:50) 0 0 0 0 0
08-09-2017 36.4 (17:00) 15.2 (00:00) 25.8 8.89 (18:40) 4.17 (18:50) 0 0 0 0 0
07-09-2017 36.4 (17:20) 19.3 (00:00) 27.9 6.11 (15:40) 1.94 (15:00) 0 0 0 0 0
06-09-2017 37.4 (19:20) 19.9 (00:00) 28.7 10 (16:20) 2.5 (16:40) 0 0 0 0 0
05-09-2017 35.7 (18:10) 17.8 (00:00) 26.8 6.11 (15:30) 3.06 (06:50) 0 0 0 0 0
04-09-2017 33.8 (19:00) 16.2 (00:00) 25 9.17 (15:30) 3.61 (20:00) 0 0 0 0 0
03-09-2017 34.9 (16:50) 17.8 (00:00) 26.4 8.33 (16:10) 3.61 (18:20) 0 0 0 0 0
02-09-2017 34.3 (16:10) 19.2 (00:00) 26.8 8.89 (10:20) 3.61 (12:50) 0 0 0 0 0
01-09-2017 34.3 (16:30) 17.4 (00:00) 25.8 8.33 (16:40) 3.61 (18:50) 0 0 0 0 0
31-08-2017 32.6 (17:30) 16.8 (00:00) 24.7 6.39 (16:20) 2.78 (15:20) 0 0 0 0 0
30-08-2017 29.8 (17:30) 14.8 (00:00) 22.3 5.83 (16:00) 2.78 (15:20) 0 0 0 0 0
29-08-2017 26 (13:40) 16.1 (00:00) 21.1 7.5 (00:10) 3.06 (14:50) 0.4 0 0 0.2 0.2
28-08-2017 30.6 (18:40) 18 (00:00) 24.3 11.39 (23:40) 5.28 (23:50) 0 0 0 0 0
27-08-2017 33.1 (17:00) 22.9 (00:00) 28 16.11 (15:50) 7.5 (16:10) 0 0 0 0 0
26-08-2017 36 (18:10) 19.6 (00:00) 27.8 10.56 (18:30) 5.83 (19:40) 0 0 0 0 0
25-08-2017 36.1 (19:20) 18.4 (00:00) 27.2 6.11 (15:50) 3.06 (16:10) 0 0 0 0 0
24-08-2017 35.3 (18:10) 18.4 (00:00) 26.8 8.61 (18:30) 4.17 (18:40) 0 0 0 0 0
23-08-2017 38.4 (17:30) 22.7 (00:00) 30.6 7.78 (14:00) 3.89 (16:40) 0 0 0 0 0
22-08-2017 38.9 (18:10) 23.2 (00:00) 31.1 6.67 (12:00) 3.33 (11:30) 0 0 0 0 0

Gráficas

Temp. máximas Temp. mínimas Temp. medias Precipitaciones Rachas de viento máximas Velocidades máximas media en intervalos de 10 minutos

Datos horarios

Fecha y hora oficial Temperatura (ºC) Velocidad del viento (km/h) Dirección del viento Racha (km/h) Dirección de racha Precipitación (mm) Presión (hPa) Tendencia (hPa) Humedad (%)
2017-09-20 23:00:00 22.4 4 Sur 12 Sudeste 0 984 0.6 30
2017-09-20 22:00:00 23.6 3 Sur 7 Sudoeste 0 983.8 0.2 27
2017-09-20 21:00:00 25.2 2 Norte 6 Noroeste 0 983.5 -0.3 25
2017-09-20 20:00:00 28 3 Norte 13 Noroeste 0 983.4 -0.9 22
2017-09-20 19:00:00 30.7 6 Noroeste 16 Noroeste 0 983.6 -1.4 17
2017-09-20 18:00:00 30.9 9 Noroeste 22 Noroeste 0 983.8 -1.9 16
2017-09-20 17:00:00 31 8 Noroeste 21 Noroeste 0 984.3 -2.2 18
2017-09-20 16:00:00 30.6 8 Norte 21 Norte 0 985 -2.1 19
2017-09-20 15:00:00 30.5 8 Noroeste 21 Noroeste 0 985.7 -1.8 20
2017-09-20 14:00:00 28.6 4 Norte 9 Norte 0 986.5 -1.4 23
2017-09-20 13:00:00 26.4 4 Nordeste 9 Norte 0 987.1 -0.6 28
2017-09-20 12:00:00 23 4 Norte 9 Nordeste 0 987.5 0.1 37
2017-09-20 11:00:00 19.6 3 Norte 6 Norte 0 987.9 0.6 50
2017-09-20 10:00:00 16.9 0 Calma 9 Este 0 987.7 0.6 58
2017-09-20 09:00:00 13 0 Calma 12 Nordeste 0 987.4 0.1 63
2017-09-20 08:00:00 13 0 Calma 8 Sudeste 0 987.3 -0.2 58
2017-09-20 07:00:00 13.5 6 Sudeste 8 Sudeste 0 987.1 -0.5 51
2017-09-20 06:00:00 13.6 4 Sudeste 7 Sudeste 0 987.3 -0.6 54
2017-09-20 05:00:00 14.3 0 Calma 5 Norte 0 987.5 -0.2 57
2017-09-20 04:00:00 15.2 0 Calma 4 Nordeste 0 987.6 -0.2 54
2017-09-20 03:00:00 16.5 2 Norte 7 Sudeste 0 987.9 -0.1 49
2017-09-20 02:00:00 17.5 6 Sudeste 9 Sudeste 0 987.7 -0.3 38
2017-09-20 01:00:00 18.5 5 Sudeste 11 Sudeste 0 987.8 -0.1 36
2017-09-20 00:00:00 18.8 4 Sudeste 7 Sudeste 0 988 0.4 42
2017-09-19 23:00:00 20.1 2 Sudeste 5 Sur 0 988 0.6 36
2017-09-19 22:00:00 21.7 0 Calma 3 Sudeste 0 987.9 0.4 34
2017-09-19 21:00:00 23.7 2 Sur 4 Sudoeste 0 987.6 0 32
2017-09-19 20:00:00 26.3 2 Oeste 9 Nordeste 0 987.4 -0.8 28
2017-09-19 19:00:00 28.4 3 Noroeste 12 Oeste 0 987.5 -1.2 24
2017-09-19 18:00:00 28.8 3 Norte 15 Noroeste 0 987.6 -1.7 23
2017-09-19 17:00:00 29.1 4 Oeste 16 Sudoeste 0 988.2 -1.9 19
2017-09-19 16:00:00 27.9 5 Norte 19 Oeste 0 988.7 -2 24
2017-09-19 15:00:00 26.8 6 Noroeste 17 Noroeste 0 989.3 -1.8 27
2017-09-19 14:00:00 26.1 6 Oeste 17 Noroeste 0 990.1 -1.1 31
2017-09-19 13:00:00 24.4 4 Oeste 16 Oeste 0 990.7 0 37
2017-09-19 12:00:00 21.3 4 Noroeste 12 Oeste 0 991.1 1 49
2017-09-19 11:00:00 18.6 4 Oeste 14 Oeste 0 991.2 1.6 59
2017-09-19 10:00:00 16.7 5 Oeste 14 Oeste 0 990.7 1.1 68
2017-09-19 09:00:00 14.1 6 Sudoeste 12 Oeste 0 990.1 0.8 75
2017-09-19 08:00:00 13.1 4 Sudoeste 10 Sudoeste 0 989.6 0.5 76
2017-09-19 07:00:00 13.6 5 Sudoeste 15 Oeste 0 989.6 0.5 76
2017-09-19 06:00:00 14.2 7 Sudoeste 14 Sudoeste 0 989.3 -0.2 74
2017-09-19 05:00:00 14.6 6 Sudoeste 13 Sudoeste 0 989.1 -0.4 70
2017-09-19 04:00:00 15.1 5 Sudoeste 11 Sudoeste 0 989.1 -0.4 67
2017-09-19 03:00:00 15.6 5 Sudoeste 13 Sur 0 989.5 0.2 63
2017-09-19 02:00:00 16.3 6 Sudoeste 12 Sur 0 989.5 0.4 58
2017-09-19 01:00:00 17.4 6 Sudoeste 13 Sudoeste 0 989.5 0.9 53
2017-09-19 00:00:00 18.4 5 Sudoeste 12 Sudoeste 0 989.3 1.3 51
2017-09-18 23:00:00 19.2 4 Sudeste 10 Oeste 0 989.1 1.5 47
2017-09-18 22:00:00 20.7 5 Sudoeste 11 Oeste 0 988.6 1.4 42
2017-09-18 21:00:00 22.5 4 Oeste 22 Oeste 0 988 1 38
2017-09-18 20:00:00 24.9 8 Oeste 30 Oeste 0 987.6 0.5 32
2017-09-18 19:00:00 26.8 13 Oeste 32 Oeste 0 987.2 -0.2 30
2017-09-18 18:00:00 27.9 13 Oeste 33 Sudoeste 0 987 -1 31
2017-09-18 17:00:00 27.7 11 Oeste 39 Oeste 0 987.1 -1.6 30
2017-09-18 16:00:00 27.3 12 Oeste 32 Noroeste 0 987.4 -1.8 31
2017-09-18 15:00:00 26.3 14 Oeste 33 Oeste 0 988 -1.4 32
2017-09-18 14:00:00 24.5 9 Oeste 25 Noroeste 0 988.7 -0.5 33
2017-09-18 13:00:00 23.3 11 Oeste 27 Oeste 0 989.2 0.4 37
2017-09-18 12:00:00 20.9 12 Oeste 25 Sudoeste 0 989.4 1.3 40
2017-09-18 11:00:00 17.5 11 Oeste 24 Oeste 0 989.2 1.4 51
2017-09-18 10:00:00 14.9 12 Sudoeste 23 Sudoeste 0 988.8 1.7 62
2017-09-18 09:00:00 11.8 10 Sudoeste 20 Sudoeste 0 988.1 1 75
2017-09-18 08:00:00 10.9 8 Sudoeste 15 Sudoeste 0 987.8 0.9 75
2017-09-18 07:00:00 11.5 8 Sudoeste 21 Sudoeste 0 987.1 0.5 71
2017-09-18 06:00:00 12.2 6 Oeste 21 Sudoeste 0 987.1 0.3 65
2017-09-18 05:00:00 13 8 Sudoeste 18 Oeste 0 986.9 0.2 63
2017-09-18 04:00:00 14.4 11 Sudoeste 24 Sudoeste 0 986.6 0 57
2017-09-18 03:00:00 15.6 12 Sudoeste 26 Oeste 0 986.8 0.5 51
2017-09-18 02:00:00 15.7 8 Sudoeste 22 Sudoeste 0 986.7 0.5 45
2017-09-18 01:00:00 16.1 5 Sudoeste 13 Sudoeste 0 986.6 0.9 36
2017-09-18 00:00:00 16.8 7 Sudoeste 13 Sudoeste 0 986.3 1.2 30
2017-09-17 23:00:00 17.9 5 Sudoeste 10 Oeste 0 986.2 1.4 28
2017-09-17 22:00:00 19.9 5 Oeste 12 Oeste 0 985.7 0.8 26
2017-09-17 21:00:00 21.5 5 Oeste 11 Oeste 0 985.1 0.1 20
2017-09-17 20:00:00 25.4 5 Oeste 22 Noroeste 0 984.8 -0.2 11
2017-09-17 19:00:00 27.3 10 Oeste 27 Oeste 0 984.9 -0.6 9
2017-09-17 18:00:00 27.3 12 Oeste 26 Oeste 0 985 -1.1 15
2017-09-17 17:00:00 27.8 11 Oeste 27 Noroeste 0 985 -1.6 13
2017-09-17 16:00:00 26.9 10 Oeste 23 Noroeste 0 985.5 -1.5 14
2017-09-17 15:00:00 27.1 10 Oeste 24 Oeste 0 986.1 -1.2 14
2017-09-17 14:00:00 25.9 5 Oeste 17 Sudoeste 0 986.6 -0.7 18
2017-09-17 13:00:00 23.5 2 Norte 12 Noroeste 0 987 0.2 27
2017-09-17 12:00:00 21.1 4 Oeste 12 Sudoeste 0 987.3 0.9 31
2017-09-17 11:00:00 17.4 5 Oeste 16 Sudoeste 0 987.3 1.6 42
2017-09-17 10:00:00 14.9 7 Oeste 14 Oeste 0 986.8 1.5 49
2017-09-17 09:00:00 11.4 4 Sudoeste 15 Sudoeste 0 986.4 1.4 55
2017-09-17 08:00:00 11.4 8 Sudoeste 17 Sudoeste 0 985.7 0.8 56
2017-09-17 07:00:00 10.8 6 Sudoeste 12 Sudoeste 0 985.3 0.4 54
2017-09-17 06:00:00 11.7 6 Sudoeste 14 Oeste 0 985 0.1 50
2017-09-17 05:00:00 12.8 7 Oeste 15 Oeste 0 984.9 0.3 45
2017-09-17 04:00:00 12.5 5 Sudoeste 8 Sudoeste 0 984.9 0.3 43
2017-09-17 03:00:00 13.2 3 Sur 8 Sur 0 984.9 0.4 39
2017-09-17 02:00:00 14.3 3 Sudeste 5 Sudeste 0 984.6 0.5 45
2017-09-17 01:00:00 15.6 0 Calma 5 Noroeste 0 984.6 1.1 39
2017-09-17 00:00:00 16.9 0 Calma 9 Sudeste 0 984.5 1.6 32
2017-09-16 23:00:00 17.6 2 Sur 5 Norte 0 984.1 1.9 39
2017-09-16 22:00:00 19.1 3 Norte 9 Noroeste 0 983.5 1.6 29
2017-09-16 21:00:00 21.7 5 Norte 12 Norte 0 982.9 1.1 24
2017-09-16 20:00:00 24.8 4 Oeste 15 Oeste 0 982.2 0.3 23
2017-09-16 19:00:00 26.4 6 Oeste 22 Sudoeste 0 981.9 -0.2 21
2017-09-16 18:00:00 26.2 9 Oeste 22 Oeste 0 981.8 -0.7 21
2017-09-16 17:00:00 26.3 6 Noroeste 20 Noroeste 0 981.9 -1.1 20
2017-09-16 16:00:00 25.4 9 Noroeste 22 Noroeste 0 982.1 -0.9 23
2017-09-16 15:00:00 25.5 4 Nordeste 17 Norte 0 982.5 -0.9 25
2017-09-16 14:00:00 24.2 6 Noroeste 14 Sur 0 983 -0.2 28
2017-09-16 13:00:00 23.2 5 Este 14 Sudeste 0 983 0.1 30
2017-09-16 12:00:00 20.9 4 Nordeste 11 Nordeste 0 983.4 1.4 34
2017-09-16 11:00:00 17.8 4 Oeste 12 Sudoeste 0 983.2 2 38
2017-09-16 10:00:00 15.2 6 Sudoeste 16 Sudoeste 0 982.9 2.2 47
2017-09-16 09:00:00 12.1 5 Sudoeste 12 Sudoeste 0 982 1.5 56
2017-09-16 08:00:00 11 8 Sudoeste 19 Sudoeste 0 981.2 0.9 58
2017-09-16 07:00:00 11 5 Sudoeste 11 Sudoeste 0 980.7 0.3 59
2017-09-16 06:00:00 11 6 Sudoeste 11 Sudoeste 0 980.5 -0.2 59
2017-09-16 05:00:00 11.8 6 Sudoeste 13 Sudoeste 0 980.3 -0.4 55
2017-09-16 04:00:00 12.5 7 Sudoeste 13 Sudoeste 0 980.4 -0.4 51
2017-09-16 03:00:00 13.4 7 Sudoeste 16 Sudoeste 0 980.7 -0.2 52
2017-09-16 02:00:00 14 7 Sudoeste 17 Sudoeste 0 980.7 -0.1 51
2017-09-16 01:00:00 14.6 4 Sudoeste 13 Sudoeste 0 980.8 0 35
2017-09-16 00:00:00 16.4 0 Calma 12 Noroeste 0 980.9 0.9 32
2017-09-15 23:00:00 18.3 6 Noroeste 16 Noroeste 0 980.8 1 27
2017-09-15 22:00:00 20.1 7 Noroeste 21 Oeste 0 980.8 1.2 22
2017-09-15 21:00:00 21.3 8 Noroeste 27 Noroeste 0 980 0.6 21
2017-09-15 20:00:00 23.8 12 Noroeste 29 Noroeste 0 979.8 0 19
2017-09-15 19:00:00 25.6 16 Noroeste 32 Noroeste 0 979.6 -0.5 15
2017-09-15 18:00:00 26.4 14 Noroeste 32 Oeste 0 979.4 -1.2 17
2017-09-15 17:00:00 26.7 13 Noroeste 33 Noroeste 0 979.8 -1.3 18
2017-09-15 16:00:00 26.6 14 Oeste 32 Oeste 0 980.1 -1.7 20
2017-09-15 15:00:00 26.4 13 Noroeste 36 Noroeste 0 980.6 -1.8 22
2017-09-15 14:00:00 25.4 10 Noroeste 29 Noroeste 0 981.1 -1.3 24
2017-09-15 13:00:00 23.3 13 Oeste 33 Sudoeste 0 981.8 -0.4 29
2017-09-15 12:00:00 20.5 12 Oeste 27 Oeste 0 982.4 0.3 38
2017-09-15 11:00:00 18.1 13 Oeste 29 Sudoeste 0 982.4 0.5 47
2017-09-15 10:00:00 15.5 12 Oeste 26 Oeste 0 982.2 0.6 60
2017-09-15 09:00:00 13.2 9 Sudoeste 23 Sudoeste 0 982.1 0.4 73
2017-09-15 08:00:00 12.7 10 Oeste 25 Sudoeste 0 981.9 -0.2 75
2017-09-15 07:00:00 13.3 10 Sudoeste 28 Sudoeste 0 981.6 -0.9 72
2017-09-15 06:00:00 13.9 11 Oeste 23 Oeste 0 981.7 -1 68
2017-09-15 05:00:00 14.9 10 Sudoeste 27 Sudoeste 0 982.1 -0.9 61
2017-09-15 04:00:00 16.3 12 Oeste 28 Sudoeste 0 982.5 -0.7 50
2017-09-15 03:00:00 17.9 12 Sudoeste 24 Sudoeste 0 982.7 -0.2 44
2017-09-15 02:00:00 19.5 12 Sudoeste 28 Sudoeste 0 983 -0.1 40
2017-09-15 01:00:00 21.3 11 Sudoeste 21 Sudoeste 0 983.2 0.3 49
2017-09-15 00:00:00 23.1 8 Oeste 18 Sudoeste 0 982.9 -0.2 48
2017-09-14 23:00:00 23.6 7 Sudoeste 15 Oeste 0 983.1 -0.1 34
2017-09-14 22:00:00 24.8 4 Sudoeste 12 Sudoeste 0 982.9 -0.4 27
2017-09-14 21:00:00 27.1 6 Sudoeste 15 Sudoeste 0 983.1 -0.7 20
2017-09-14 20:00:00 30.5 8 Sudoeste 23 Sudoeste 0 983.2 -1.3 17
2017-09-14 19:00:00 31.6 10 Oeste 25 Oeste 0 983.3 -2 19
2017-09-14 18:00:00 31.4 9 Oeste 27 Sudoeste 0 983.8 -2.5 21
2017-09-14 17:00:00 31 9 Oeste 26 Sudoeste 0 984.5 -2.5 20
2017-09-14 16:00:00 31.6 11 Oeste 24 Oeste 0 985.3 -2.5 22
2017-09-14 15:00:00 29.6 8 Sudoeste 22 Sudoeste 0 986.3 -2.1 27
2017-09-14 14:00:00 28.7 8 Oeste 22 Sudoeste 0 987 -1.4 30
2017-09-14 13:00:00 26.2 10 Oeste 23 Sudoeste 0 987.8 -0.2 37
2017-09-14 12:00:00 23.5 10 Oeste 26 Sudoeste 0 988.4 0.8 44
2017-09-14 11:00:00 21.6 9 Oeste 23 Sudoeste 0 988.4 1.3 55
2017-09-14 10:00:00 19.2 10 Oeste 24 Sudoeste 0 988 1.2 63
2017-09-14 09:00:00 16.7 8 Sudoeste 15 Oeste 0 987.6 0.9 73
2017-09-14 08:00:00 16.6 7 Oeste 16 Oeste 0 987.1 0.1 69
2017-09-14 07:00:00 17.7 6 Sudoeste 15 Sudoeste 0 986.8 -0.3 63
2017-09-14 06:00:00 18.4 7 Sudoeste 14 Sudoeste 0 986.7 -0.5 57
2017-09-14 05:00:00 19.8 7 Sudoeste 17 Sudoeste 0 987 -0.2 52
2017-09-14 04:00:00 20.6 10 Sudoeste 21 Oeste 0 987.1 0.2 46
2017-09-14 03:00:00 20.8 6 Sudoeste 13 Sudoeste 0 987.2 0.6 40
2017-09-14 02:00:00 21.9 8 Sudoeste 13 Sudoeste 0 987.2 0.6 35
2017-09-14 01:00:00 22.6 7 Oeste 17 Sudoeste 0 986.9 0.6 36
2017-09-14 00:00:00 23.3 4 Sudoeste 8 Sudoeste 0 986.6 0.8 33
2017-09-13 23:00:00 24.5 5 Sudoeste 9 Sudoeste 0 986.6 0.8 29
2017-09-13 22:00:00 26.4 4 Sur 11 Sudoeste 0 986.3 0.6 24
2017-09-13 21:00:00 28.3 2 Oeste 10 Oeste 0 985.8 -0.3 22
2017-09-13 20:00:00 31.9 6 Oeste 22 Noroeste 0 985.8 -0.9 17
2017-09-13 19:00:00 33.6 9 Noroeste 23 Noroeste 0 985.7 -1.5 14
2017-09-13 18:00:00 34.2 11 Noroeste 24 Noroeste 0 986.1 -1.8 14
2017-09-13 17:00:00 34.3 12 Oeste 26 Oeste 0 986.7 -1.8 14
2017-09-13 16:00:00 34 6 Noroeste 19 Noroeste 0 987.2 -2 19
2017-09-13 15:00:00 33.5 6 Oeste 23 Oeste 0 987.9 -1.4 19
2017-09-13 14:00:00 31.4 7 Oeste 17 Noroeste 0 988.5 -0.6 23
2017-09-13 13:00:00 29.8 3 Nordeste 9 Nordeste 0 989.2 0.2 24
2017-09-13 12:00:00 27.5 2 Este 9 Norte 0 989.3 0.9 29
2017-09-13 11:00:00 24.6 2 Norte 8 Sudoeste 0 989.1 1.2 34
2017-09-13 10:00:00 21.1 3 Oeste 6 Sudoeste 0 989 1.5 45
2017-09-13 09:00:00 16.8 2 Noroeste 7 Sudeste 0 988.4 1.4 58
2017-09-13 08:00:00 16.5 4 Sudeste 9 Sudeste 0 987.9 0.8 53
2017-09-13 07:00:00 16.7 4 Sur 8 Sur 0 987.5 0.1 53
2017-09-13 06:00:00 17.4 2 Oeste 5 Noroeste 0 987 -0.6 55
2017-09-13 05:00:00 18.7 0 Calma 4 Sudeste 0 987.1 -0.4 52
2017-09-13 04:00:00 19.2 3 Sudeste 5 Noroeste 0 987.4 0 49
2017-09-13 03:00:00 19.8 2 Oeste 4 Sur 0 987.6 0.2 48
2017-09-13 02:00:00 21 0 Calma 6 Norte 0 987.5 0.4 46
2017-09-13 01:00:00 21.1 0 Calma 5 Norte 0 987.4 0.9 49
2017-09-13 00:00:00 22.2 0 Calma 6 Noroeste 0 987.4 1.7 42
2017-09-12 23:00:00 23 2 Oeste 6 Noroeste 0 987.1 1.9 42
2017-09-12 22:00:00 24.8 0 Calma 14 Noroeste 0 986.5 1.6 33
2017-09-12 21:00:00 27.1 6 Noroeste 19 Noroeste 0 985.7 0.8 28
2017-09-12 20:00:00 30 10 Noroeste 24 Noroeste 0 985.2 0.3 23
2017-09-12 19:00:00 31.6 11 Noroeste 26 Noroeste 0 984.9 -0.2 19
2017-09-12 18:00:00 32.5 10 Noroeste 26 Noroeste 0 984.9 -0.8 18
2017-09-12 17:00:00 32.1 8 Noroeste 30 Noroeste 0 984.9 -0.9 18
2017-09-12 16:00:00 31.8 8 Noroeste 26 Noroeste 0 985.1 -0.9 18
2017-09-12 15:00:00 31.5 8 Noroeste 26 Noroeste 0 985.7 -0.4 18
2017-09-12 14:00:00 29.9 8 Noroeste 32 Noroeste 0 985.8 0 21
2017-09-12 13:00:00 28.6 8 Noroeste 28 Noroeste 0 986 0.6 23
2017-09-12 12:00:00 27.1 6 Oeste 17 Oeste 0 986.1 1.1 28
2017-09-12 11:00:00 23.7 8 Oeste 16 Oeste 0 985.8 1.3 40
2017-09-12 10:00:00 20.7 9 Oeste 18 Oeste 0 985.4 1.4 48
2017-09-12 09:00:00 17.1 6 Sudoeste 14 Sudoeste 0 985 1.4 58
2017-09-12 08:00:00 16 8 Sudoeste 14 Sudoeste 0 984.5 1 59
2017-09-12 07:00:00 16.4 5 Sudoeste 12 Oeste 0 984 0.3 59
2017-09-12 06:00:00 16.7 4 Oeste 15 Sudoeste 0 983.6 0 57
2017-09-12 05:00:00 17.7 6 Sudoeste 12 Sudoeste 0 983.5 0.1 54
2017-09-12 04:00:00 18.6 4 Oeste 9 Oeste 0 983.7 0.4 50
2017-09-12 03:00:00 19.7 5 Oeste 12 Oeste 0 983.6 0.5 47
2017-09-12 02:00:00 20.7 5 Oeste 12 Sudoeste 0 983.4 0.8 45
2017-09-12 01:00:00 21.7 3 Sudoeste 7 Sudoeste 0 983.3 1.2 39
2017-09-12 00:00:00 22.7 3 Sur 13 Noroeste 0 983.1 1.8 38
2017-09-11 23:00:00 24.6 4 Noroeste 18 Noroeste 0 982.6 1.3 29
2017-09-11 22:00:00 26.8 5 Noroeste 19 Noroeste 0 982.1 0.8 23
2017-09-11 21:00:00 28.1 3 Oeste 15 Noroeste 0 981.3 -0.1 24
2017-09-11 20:00:00 31.6 7 Noroeste 24 Noroeste 0 981.3 -0.4 18
2017-09-11 19:00:00 33.1 12 Noroeste 33 Oeste 0 981.3 -0.8 16
2017-09-11 18:00:00 33.5 14 Noroeste 29 Noroeste 0 981.4 -1.7 15
2017-09-11 17:00:00 33.7 9 Noroeste 28 Oeste 0 981.7 -2.1 17
2017-09-11 16:00:00 33.6 7 Oeste 23 Noroeste 0 982.1 -2.2 16
2017-09-11 15:00:00 31.5 8 Noroeste 21 Noroeste 0 983.1 -1.4 24
2017-09-11 14:00:00 29.6 6 Noroeste 18 Oeste 0 983.8 -0.5 28
2017-09-11 13:00:00 28.9 5 Sudoeste -- -- -- 984.3 0.1 27
2017-09-11 12:00:00 25.2 8 Oeste 14 Oeste 0 984.5 0.5 32
2017-09-11 11:00:00 23 5 Oeste 15 Sudoeste 0 984.3 0.8 32
2017-09-11 10:00:00 20.2 7 Sudoeste 14 Sudoeste 0 984.2 1.1 35
2017-09-11 09:00:00 16 5 Oeste 11 Oeste 0 984 0.8 42
2017-09-11 08:00:00 15.2 2 Oeste 9 Sudoeste 0 983.5 0.1 41
2017-09-11 07:00:00 16 5 Sudoeste 10 Sudoeste 0 983.1 -0.4 41
2017-09-11 06:00:00 16.4 6 Sudoeste 12 Oeste 0 983.2 -0.7 37
2017-09-11 05:00:00 16.9 6 Sudoeste 14 Oeste 0 983.4 -0.6 34
2017-09-11 04:00:00 17.3 6 Sudoeste 11 Sur 0 983.5 -0.3 31
2017-09-11 03:00:00 17.5 3 Sur 10 Sudoeste 0 983.9 0 31
2017-09-11 02:00:00 18.2 4 Sur 11 Sur 0 984 0.2 28
2017-09-11 01:00:00 19.1 2 Sudoeste 7 Sur 0 983.8 0.3 30
2017-09-11 00:00:00 20.1 3 Sur 9 Sur 0 983.9 1.2 32
2017-09-10 23:00:00 20.5 3 Sudoeste 9 Sur 0 983.8 0.9 33
2017-09-10 22:00:00 21.9 4 Oeste 9 Noroeste 0 983.5 0.8 25
2017-09-10 21:00:00 24.2 2 Oeste 10 Noroeste 0 982.7 0 24
2017-09-10 20:00:00 27.1 5 Noroeste 13 Sur 0 982.9 -0.2 20
2017-09-10 19:00:00 28.3 5 Oeste 14 Sudoeste 0 982.7 -1.1 17
2017-09-10 18:00:00 28 3 Sudeste 18 Noroeste 0 982.7 -1.7 18
2017-09-10 17:00:00 27.7 4 Noroeste 17 Oeste 0 983.1 -1.5 20
2017-09-10 16:00:00 26.6 6 Oeste 20 Oeste 0 983.8 -0.9 21
2017-09-10 15:00:00 25 5 Noroeste 17 Noroeste 0 984.4 -0.3 24
2017-09-10 14:00:00 23.9 5 Noroeste 16 Noroeste 0 984.6 0.3 27
2017-09-10 13:00:00 22.1 4 Norte 14 Noroeste 0 984.7 0.7 33
2017-09-10 12:00:00 20.5 3 Oeste 14 Oeste 0 984.7 1 35
2017-09-10 11:00:00 18.2 5 Oeste 14 Oeste 0 984.3 1.4 46
2017-09-10 10:00:00 15.6 8 Oeste 15 Sudoeste 0 984 1.7 56
2017-09-10 09:00:00 12.4 6 Sudoeste 14 Sudoeste 0 983.7 1.9 72
2017-09-10 08:00:00 12 6 Oeste 15 Sur 0 982.9 0.9 70
2017-09-10 07:00:00 12.6 5 Sudoeste 14 Sur 0 982.3 0.9 69
2017-09-10 06:00:00 14.2 7 Noroeste 20 Noroeste 0 981.8 -0.1 62
2017-09-10 05:00:00 15.2 5 Sudoeste 33 Noroeste 0 982 1.1 57
2017-09-10 04:00:00 17.3 18 Noroeste 46 Noroeste 0 981.4 0.8 49
2017-09-10 03:00:00 16.3 8 Sur 26 Noroeste 0 981.9 1.5 54
2017-09-10 02:00:00 16.9 14 Noroeste 33 Noroeste 0 980.9 1 54
2017-09-10 01:00:00 18.1 15 Noroeste 42 Noroeste 0 980.6 1.5 49
2017-09-10 00:00:00 19.4 15 Noroeste 39 Noroeste 0 980.4 2.2 44
2017-09-09 23:00:00 20.4 15 Noroeste 32 Noroeste 0 979.9 2.1 40
2017-09-09 22:00:00 22.2 15 Noroeste 32 Oeste 0 979.1 1.4 29
2017-09-09 21:00:00 23.2 15 Noroeste 35 Noroeste 0 978.2 0.5 26
2017-09-09 20:00:00 25.5 16 Noroeste 43 Noroeste 0 977.8 -0.2 23
2017-09-09 19:00:00 26.8 16 Noroeste 44 Noroeste 0 977.7 -0.8 22
2017-09-09 18:00:00 26.9 19 Noroeste 46 Noroeste 0 977.7 -1.4 24
2017-09-09 17:00:00 27.8 16 Oeste 41 Noroeste 0 978 -1.4 25
2017-09-09 16:00:00 27.6 16 Noroeste 44 Noroeste 0 978.5 -1.8 26
2017-09-09 15:00:00 26.7 16 Noroeste 46 Noroeste 0 979.1 -1.4 25
2017-09-09 14:00:00 26.6 13 Noroeste 37 Noroeste 0 979.4 -1.2 30
2017-09-09 13:00:00 23 13 Noroeste 30 Noroeste 0 980.3 -0.3 42
2017-09-09 12:00:00 20.3 12 Oeste 32 Sudoeste 0 980.5 0 54
2017-09-09 11:00:00 18.3 12 Oeste 23 Oeste 0 980.6 0.5 62
2017-09-09 10:00:00 16.8 6 Oeste 24 Sudoeste 0 980.6 0.8 71
2017-09-09 09:00:00 15.4 12 Oeste 27 Oeste 0 980.5 0.6 78
2017-09-09 08:00:00 15.1 10 Sudoeste 24 Sudoeste 0 980.1 0.3 77
2017-09-09 07:00:00 15.1 13 Sudoeste 31 Sudoeste 0 979.8 -0.2 73
2017-09-09 06:00:00 15.1 12 Oeste 31 Oeste 0 979.9 -0.4 67
2017-09-09 05:00:00 15.8 9 Sudoeste 26 Oeste 0 979.8 -1 62
2017-09-09 04:00:00 16.7 11 Sudoeste 25 Sudoeste 0 980 -0.6 56
2017-09-09 03:00:00 17.9 10 Sudoeste 26 Oeste 0 980.3 -0.2 46
2017-09-09 02:00:00 19.2 10 Sudoeste 27 Sudoeste 0 980.8 0.6 38
2017-09-09 01:00:00 21 13 Sudoeste 28 Sudoeste 0 980.6 0.4 30
2017-09-09 00:00:00 22.5 8 Sudoeste 24 Sudoeste 0 980.5 1 28
2017-09-08 23:00:00 24.3 8 Sudoeste 19 Sudoeste 0 980.2 1.1 20
2017-09-08 22:00:00 26.9 8 Oeste 24 Oeste 0 980.2 0.9 14
2017-09-08 21:00:00 29.1 10 Oeste 24 Oeste 0 979.5 -0.1 9
2017-09-08 20:00:00 33 10 Oeste 29 Oeste 0 979.1 -1 9
2017-09-08 19:00:00 35.2 12 Oeste 32 Oeste 0 979.3 -1.6 7
2017-09-08 18:00:00 36 12 Oeste 31 Sudoeste 0 979.6 -2.2 8
2017-09-08 17:00:00 36.4 13 Sudoeste 32 Oeste 0 980.1 -2.1 8
2017-09-08 16:00:00 35.3 13 Oeste 32 Oeste 0 980.9 -1.8 9
2017-09-08 15:00:00 33.1 7 Oeste 21 Noroeste 0 981.8 -1.4 11
2017-09-08 14:00:00 32.2 8 Oeste 19 Oeste 0 982.2 -1.1 12
2017-09-08 13:00:00 28.7 7 Oeste 15 Noroeste 0 982.7 -0.4 17
2017-09-08 12:00:00 26.9 3 Sudoeste 11 Oeste 0 983.2 0.4 18
2017-09-08 11:00:00 22.4 4 Oeste 10 Oeste 0 983.3 0.9 27
2017-09-08 10:00:00 19.4 3 Noroeste 6 Oeste 0 983.1 0.7 32
2017-09-08 09:00:00 15.6 2 Sudeste 6 Sur 0 982.8 0.5 36
2017-09-08 08:00:00 15.3 3 Sur 5 Sur 0 982.4 -0.2 37
2017-09-08 07:00:00 16.2 3 Sudoeste 4 Sudoeste 0 982.4 -0.5 36
2017-09-08 06:00:00 17 2 Sur 6 Oeste 0 982.3 -0.8 36
2017-09-08 05:00:00 17.8 2 Sudeste 5 Sudoeste 0 982.6 -0.6 34
2017-09-08 04:00:00 19.3 0 Calma 6 Sudeste 0 982.9 -0.4 29
2017-09-08 03:00:00 20.2 3 Sur 7 Sudoeste 0 983.1 -0.2 27
2017-09-08 02:00:00 21.3 2 Sur 8 Sudeste 0 983.2 0.2 32
2017-09-08 01:00:00 22.7 4 Sur 10 Sur 0 983.3 0.9 25
2017-09-08 00:00:00 24 2 Este 10 Norte 0 983.3 1.5 28
2017-09-07 23:00:00 25.7 3 Norte 9 Norte 0 983 1.3 24
2017-09-07 22:00:00 28 6 Norte 14 Norte 0 982.4 0.8 21
2017-09-07 21:00:00 30.1 5 Norte 17 Norte 0 981.8 0 20
2017-09-07 20:00:00 33.7 4 Noroeste 11 Norte 0 981.7 -0.8 19
2017-09-07 19:00:00 34.9 3 Norte 11 Oeste 0 981.6 -1.4 15
2017-09-07 18:00:00 35.3 4 Norte 14 Noroeste 0 981.8 -1.7 19
2017-09-07 17:00:00 35.9 4 Nordeste 18 Norte 0 982.5 -1.4 20
2017-09-07 16:00:00 35 4 Noroeste 22 Norte 0 983 -1.5 17
2017-09-07 15:00:00 34 7 Noroeste 21 Norte 0 983.5 -1.3 21
2017-09-07 14:00:00 33 4 Nordeste 14 Noroeste 0 983.9 -0.8 25
2017-09-07 13:00:00 31.1 5 Norte 12 Norte 0 984.5 0 30
2017-09-07 12:00:00 28.4 4 Norte 10 Norte 0 984.8 0.4 33
2017-09-07 11:00:00 26.6 3 Oeste 9 Sur 0 984.7 0.9 35
2017-09-07 10:00:00 23.9 4 Sudoeste 8 Oeste 0 984.5 1 41
2017-09-07 09:00:00 19.9 3 Sur 5 Sudeste 0 984.4 0.8 50
2017-09-07 08:00:00 19.4 2 Sur 5 Sudoeste 0 983.8 0 51
2017-09-07 07:00:00 20.5 4 Sudoeste 7 Sudoeste 0 983.5 -0.5 46
2017-09-07 06:00:00 21.5 3 Sudoeste 6 Sudoeste 0 983.6 -0.3 50
2017-09-07 05:00:00 22.2 3 Sur 5 Sudoeste 0 983.8 -0.4 44
2017-09-07 04:00:00 22.4 2 Sur 6 Sudoeste 0 984 -0.1 43
2017-09-07 03:00:00 23.4 4 Sudoeste 8 Sur 0 983.9 -0.4 38
2017-09-07 02:00:00 24.4 4 Sudoeste 8 Sudoeste 0 984.2 -0.2 39
2017-09-07 01:00:00 25.4 3 Sudeste 6 Sudoeste 0 984.1 0 34
2017-09-07 00:00:00 26.1 3 Sudoeste 9 Sudoeste 0 984.3 0.7 37
2017-09-06 23:00:00 27.6 0 Calma 9 Sudoeste 0 984.4 0.9 31
2017-09-06 22:00:00 30 5 Oeste 12 Sudoeste 0 984.1 0.3 25
2017-09-06 21:00:00 31.7 4 Oeste 9 Sudoeste 0 983.6 -0.6 23
2017-09-06 20:00:00 36.2 4 Sudoeste 12 Sudoeste 0 983.5 -1.4 16
2017-09-06 19:00:00 36.9 3 Norte 22 Sudoeste 0 983.8 -1.9 18
2017-09-06 18:00:00 36.5 4 Noroeste 16 Noroeste 0 984.2 -2.2 18
2017-09-06 17:00:00 35.9 6 Norte 36 Norte 0 984.9 -2.3 21
2017-09-06 16:00:00 35.6 8 Noroeste 19 Noroeste 0 985.7 -2.1 21
2017-09-06 15:00:00 34.6 6 Oeste 15 Noroeste 0 986.4 -1.7 20
2017-09-06 14:00:00 33.2 3 Oeste 12 Noroeste 0 987.2 -1 28
2017-09-06 13:00:00 30.8 5 Noroeste 12 Noroeste 0 987.8 -0.3 29
2017-09-06 12:00:00 29 3 Sur 10 Oeste 0 988.1 0.1 33
2017-09-06 11:00:00 26.5 7 Sudoeste 16 Sudoeste 0 988.2 0.5 44
2017-09-06 10:00:00 23.3 5 Oeste 15 Oeste 0 988.1 1 56
2017-09-06 09:00:00 20.6 7 Sudoeste 13 Sudoeste 0 988 0.7 64
2017-09-06 08:00:00 20.2 5 Sudoeste 13 Sudoeste 0 987.7 0.2 65
2017-09-06 07:00:00 21.1 7 Sudoeste 18 Sudoeste 0 987.1 -0.7 59
2017-09-06 06:00:00 21.3 5 Sudoeste 14 Sudoeste 0 987.3 -0.6 59
2017-09-06 05:00:00 22 5 Sudoeste 13 Sudoeste 0 987.5 -0.5 56
2017-09-06 04:00:00 22.9 6 Sudoeste 11 Sur 0 987.8 -0.1 51
2017-09-06 03:00:00 23.2 6 Sudoeste 11 Sudoeste 0 987.9 0 49
2017-09-06 02:00:00 23.7 6 Sudoeste 12 Sudoeste 0 988 0.3 46
2017-09-06 01:00:00 24.5 6 Sudoeste 10 Sudoeste 0 987.9 0.5 42
2017-09-06 00:00:00 25.3 3 Sudoeste 9 Sudoeste 0 987.9 1 41
2017-09-05 23:00:00 26.4 3 Sudoeste 8 Oeste 0 987.7 1 38
2017-09-05 22:00:00 28.3 3 Sudoeste 9 Sudoeste 0 987.4 0.8 31
2017-09-05 21:00:00 30.4 4 Oeste 8 Noroeste 0 986.9 0.2 24
2017-09-05 20:00:00 34.1 5 Noroeste 12 Noroeste 0 986.7 -0.4 18
2017-09-05 19:00:00 35 5 Noroeste 15 Noroeste 0 986.6 -1 18
2017-09-05 18:00:00 35.1 6 Oeste 17 Noroeste 0 986.7 -1.4 20
2017-09-05 17:00:00 34.4 5 Noroeste 19 Noroeste 0 987.1 -1.3 21
2017-09-05 16:00:00 34.1 7 Noroeste 22 Norte 0 987.6 -1.3 23
2017-09-05 15:00:00 32.2 8 Noroeste 19 Noroeste 0 988.1 -0.9 30
2017-09-05 14:00:00 32 4 Este 12 Norte 0 988.4 -0.5 31
2017-09-05 13:00:00 29.8 2 Nordeste 9 Norte 0 988.9 0.1 38
2017-09-05 12:00:00 26.4 3 Nordeste 10 Oeste 0 989 0.8 47
2017-09-05 11:00:00 24.2 4 Sudoeste 15 Sudoeste 0 988.9 1.3 55
2017-09-05 10:00:00 20.6 6 Oeste 20 Sudoeste 0 988.8 1.8 70
2017-09-05 09:00:00 18.2 8 Sudoeste 16 Sudoeste 0 988.2 1.4 81
2017-09-05 08:00:00 17.9 7 Sudoeste 18 Sudoeste 0 987.6 0.7 81
2017-09-05 07:00:00 18.6 10 Sudoeste 19 Sudoeste 0 987 0.3 77
2017-09-05 06:00:00 19.2 8 Sudoeste 18 Oeste 0 986.8 0.3 74
2017-09-05 05:00:00 20 9 Sudoeste 19 Sudoeste 0 986.9 0.5 70
2017-09-05 04:00:00 20.7 10 Sudoeste 19 Sudoeste 0 986.7 0.6 65
2017-09-05 03:00:00 21.6 7 Sudoeste 18 Sudoeste 0 986.5 0.6 59
2017-09-05 02:00:00 22.3 7 Sudoeste 15 Sudoeste 0 986.4 1.1 55
2017-09-05 01:00:00 23.3 6 Sudoeste 14 Sudoeste 0 986.1 1.4 51
2017-09-05 00:00:00 24 6 Sudoeste 15 Sudoeste 0 985.9 1.9 49
2017-09-04 23:00:00 25.2 6 Sudoeste 14 Oeste 0 985.3 1.7 46
2017-09-04 22:00:00 26.7 5 Sudoeste 17 Oeste 0 984.7 1.5 43
2017-09-04 21:00:00 28.9 10 Oeste 27 Oeste 0 984 0.9 38
2017-09-04 20:00:00 32 13 Oeste 25 Sudoeste 0 983.6 0.2 31
2017-09-04 19:00:00 33.8 8 Oeste 25 Oeste 0 983.2 -0.4 25
2017-09-04 18:00:00 33 8 Noroeste 23 Oeste 0 983.1 -1 23
2017-09-04 17:00:00 33 6 Noroeste 26 Oeste 0 983.4 -1.2 23
2017-09-04 16:00:00 31.9 10 Noroeste 33 Noroeste 0 983.6 -1.6 27
2017-09-04 15:00:00 30.7 9 Noroeste 32 Sudoeste 0 984.1 -0.9 28
2017-09-04 14:00:00 28.8 10 Noroeste 26 Oeste 0 984.6 -0.3 33
2017-09-04 13:00:00 27.3 10 Oeste 28 Noroeste 0 985.2 0.4 38
2017-09-04 12:00:00 24.8 12 Noroeste 28 Noroeste 0 985 0.7 45
2017-09-04 11:00:00 22.7 10 Oeste 24 Oeste 0 984.9 1.1 50
2017-09-04 10:00:00 19.1 11 Oeste 23 Sudoeste 0 984.8 1.5 63
2017-09-04 09:00:00 16.6 11 Oeste 23 Oeste 0 984.3 1 71
2017-09-04 08:00:00 16.4 9 Oeste 24 Oeste 0 983.8 0.8 71
2017-09-04 07:00:00 16.9 10 Oeste 26 Oeste 0 983.3 0 70
2017-09-04 06:00:00 17.5 9 Oeste 23 Sudoeste 0 983.3 0.1 69
2017-09-04 05:00:00 18.3 9 Sudoeste 22 Sudoeste 0 983 0 65
2017-09-04 04:00:00 18.7 6 Sudoeste 23 Oeste 0 983.3 0.1 54
2017-09-04 03:00:00 19.6 9 Oeste 22 Oeste 0 983.2 0.4 40
2017-09-04 02:00:00 19.2 7 Sur 13 Sudoeste 0 983 0.6 34
2017-09-04 01:00:00 20.3 6 Sudoeste 11 Sudoeste 0 983.2 1.2 28
2017-09-04 00:00:00 22.4 5 Sudoeste 15 Oeste 0 982.8 1.2 26
2017-09-03 23:00:00 24.3 5 Sudoeste 12 Sudoeste 0 982.4 0.9 23
2017-09-03 22:00:00 26.6 5 Oeste 13 Noroeste 0 982 0.4 23
2017-09-03 21:00:00 29.6 6 Oeste 18 Oeste 0 981.6 -0.4 20
2017-09-03 20:00:00 33.4 8 Oeste 24 Sudoeste 0 981.5 -1 14
2017-09-03 19:00:00 34.7 12 Sudoeste 28 Oeste 0 981.6 -1.4 11
2017-09-03 18:00:00 34.3 9 Oeste 26 Oeste 0 982 -1.7 12
2017-09-03 17:00:00 34.5 12 Oeste 30 Oeste 0 982.5 -1.5 12
2017-09-03 16:00:00 34.5 11 Oeste 26 Oeste 0 983 -1.6 12
2017-09-03 15:00:00 34.1 8 Oeste 23 Oeste 0 983.7 -1.3 13
2017-09-03 14:00:00 32 8 Oeste 19 Oeste 0 984 -1.2 16
2017-09-03 13:00:00 31.5 4 Sudoeste 12 Noroeste 0 984.6 -0.7 21
2017-09-03 12:00:00 29.1 4 Oeste 11 Oeste 0 985 -0.2 26
2017-09-03 11:00:00 26.8 3 Sur 6 Sudoeste 0 985.2 0.3 32
2017-09-03 10:00:00 22.3 2 Nordeste 5 Nordeste 0 985.3 0.4 42
2017-09-03 09:00:00 18.8 3 Sudeste 6 Sur 0 985.2 0.1 48
2017-09-03 08:00:00 17.9 0 Calma 10 Sur 0 984.9 -0.1 53
2017-09-03 07:00:00 18.1 3 Oeste 12 Sur 0 984.9 -0.5 54
2017-09-03 06:00:00 18.6 6 Sur 13 Sur 0 985.1 -0.5 57
2017-09-03 05:00:00 20 3 Norte 8 Noroeste 0 985 -0.8 50
2017-09-03 04:00:00 20.5 2 Oeste 12 Noroeste 0 985.4 -0.7 39
2017-09-03 03:00:00 22.1 3 Sudoeste 9 Sur 0 985.6 -0.5 36
2017-09-03 02:00:00 23.7 4 Este 14 Sudeste 0 985.8 0 32
2017-09-03 01:00:00 23.3 4 Sudeste 10 Sudeste 0 986.1 0.8 31
2017-09-03 00:00:00 24.1 2 Norte 13 Norte 0 986.1 1.2 38
2017-09-02 23:00:00 26.1 6 Norte 15 Norte 0 985.8 0.9 28
2017-09-02 22:00:00 28 3 Nordeste 9 Norte 0 985.3 0.1 24
2017-09-02 21:00:00 29.7 3 Nordeste 12 Norte 0 984.9 -0.5 24
2017-09-02 20:00:00 32 5 Norte 17 Norte 0 984.9 -0.9 24
2017-09-02 19:00:00 32.9 5 Norte 24 Noroeste 0 985.2 -1.2 22
2017-09-02 18:00:00 33.1 9 Norte 25 Norte 0 985.4 -1.7 21
2017-09-02 17:00:00 33.2 8 Norte 28 Nordeste 0 985.8 -1.8 23
2017-09-02 16:00:00 34 5 Nordeste 19 Nordeste 0 986.4 -1.8 21
2017-09-02 15:00:00 32.9 8 Este 26 Este 0 987.1 -1.5 23
2017-09-02 14:00:00 31.7 8 Este 30 Sudeste 0 987.6 -0.9 25
2017-09-02 13:00:00 30.3 10 Este 30 Nordeste 0 988.2 0 30
2017-09-02 12:00:00 28.2 10 Nordeste 27 Nordeste 0 988.6 0.8 33
2017-09-02 11:00:00 26.2 10 Este 32 Este 0 988.5 1.4 39
2017-09-02 10:00:00 24.1 7 Este 22 Este 0 988.2 1.7 41
2017-09-02 09:00:00 19.5 4 Este 9 Este 0 987.8 1.7 47
2017-09-02 08:00:00 19.4 5 Nordeste 16 Nordeste 0 987.1 0.9 44
2017-09-02 07:00:00 21.4 6 Este 21 Sudeste 0 986.5 0.4 32
2017-09-02 06:00:00 21.7 7 Este 19 Este 0 986.1 0.3 32
2017-09-02 05:00:00 20.9 5 Este 15 Este 0 986.2 0.5 34
2017-09-02 04:00:00 19.3 0 Calma 8 Este 0 986.1 0.7 45
2017-09-02 03:00:00 20.2 3 Nordeste 8 Nordeste 0 985.8 1 41
2017-09-02 02:00:00 21.4 2 Sur 16 Norte 0 985.7 1.2 41
2017-09-02 01:00:00 21.7 2 Norte 9 Norte 0 985.4 1.3 35
2017-09-02 00:00:00 22.9 4 Norte 12 Norte 0 984.8 1.4 34
2017-09-01 23:00:00 24.8 6 Noroeste 13 Noroeste 0 984.5 1.4 27
2017-09-01 22:00:00 26.5 5 Norte 14 Noroeste 0 984.1 1.2 25
2017-09-01 21:00:00 28.7 4 Noroeste 17 Noroeste 0 983.4 0.7 23
2017-09-01 20:00:00 31.5 6 Noroeste 23 Norte 0 983.1 0.1 19
2017-09-01 19:00:00 32.5 10 Noroeste 25 Noroeste 0 982.9 -0.5 18
2017-09-01 18:00:00 33.3 5 Noroeste 27 Noroeste 0 982.7 -1.3 15
2017-09-01 17:00:00 33.2 11 Noroeste 30 Oeste 0 983 -1.7 18
2017-09-01 16:00:00 32.7 12 Noroeste 28 Noroeste 0 983.4 -1.9 20
2017-09-01 15:00:00 33.2 5 Nordeste 21 Noroeste 0 984 -1.6 24
2017-09-01 14:00:00 32 5 Norte 17 Noroeste 0 984.7 -0.6 25
2017-09-01 13:00:00 30.4 5 Norte 14 Norte 0 985.3 0.4 30
2017-09-01 12:00:00 28.3 3 Norte 6 Norte 0 985.6 1 32
2017-09-01 11:00:00 25.6 0 Calma 8 Oeste 0 985.3 1.2 42
2017-09-01 10:00:00 22.4 3 Sudoeste 9 Sudoeste 0 984.9 1.1 52
2017-09-01 09:00:00 18.5 4 Sur 9 Sudoeste 0 984.6 0.7 61
2017-09-01 08:00:00 17.6 3 Sudoeste 6 Sudoeste 0 984.1 0.2 59
2017-09-01 07:00:00 18.1 2 Sur 6 Sur 0 983.8 0 58
2017-09-01 06:00:00 18.3 3 Sur 8 Sudeste 0 983.9 0 56
2017-09-01 05:00:00 19 4 Sudoeste 8 Oeste 0 983.9 -- 56
2017-09-01 04:00:00 20.1 7 Sur 17 Sudeste 0 983.8 -0.2 47
2017-09-01 03:00:00 21 0 Calma 7 Sudeste 0 983.9 0.1 45
2017-09-01 02:00:00 -- -- -- -- -- -- -- -- --
2017-09-01 01:00:00 22.1 0 Calma 6 Noroeste 0 984 0.7 45
2017-09-01 00:00:00 23 0 Calma 8 Noroeste 0 983.8 0.9 50
2017-08-31 23:00:00 25.2 2 Oeste 5 Oeste 0 983.6 1 40
2017-08-31 22:00:00 26.3 3 Oeste 4 Sudoeste 0 983.3 0.6 33
2017-08-31 21:00:00 27.5 0 Calma 9 Noroeste 0 982.9 0 34
2017-08-31 20:00:00 31.3 2 Norte 10 Norte 0 982.6 -0.7 25
2017-08-31 19:00:00 31.4 5 Noroeste 13 Noroeste 0 982.7 -1.1 23
2017-08-31 18:00:00 31.8 4 Norte 20 Noroeste 0 982.9 -1.5 20
2017-08-31 17:00:00 31.4 6 Noroeste 23 Norte 0 983.3 -1.6 25
2017-08-31 16:00:00 31.3 6 Norte 19 Noroeste 0 983.8 -1.7 27
2017-08-31 15:00:00 30.7 6 Nordeste 15 Noroeste 0 984.4 -1.2 28
2017-08-31 14:00:00 29.1 7 Norte 18 Noroeste 0 984.9 -0.7 33
2017-08-31 13:00:00 28.1 3 Nordeste 10 Noroeste 0 985.5 0.1 39
2017-08-31 12:00:00 25.8 4 Este 10 Nordeste 0 985.6 0.6 50
2017-08-31 11:00:00 22.6 3 Noroeste 9 Oeste 0 985.6 1.3 60
2017-08-31 10:00:00 20.3 5 Oeste 12 Sudoeste 0 985.4 1.5 71
2017-08-31 09:00:00 17.4 5 Sudoeste 12 Sur 0 985 1.4 80
2017-08-31 08:00:00 16.8 5 Sudoeste 9 Sudoeste 0 984.3 0.6 80
2017-08-31 07:00:00 17 3 Sudoeste 14 Sur 0 983.9 0.2 78
2017-08-31 06:00:00 17.8 8 Sudoeste 13 Sudoeste 0 983.6 -0.1 73
2017-08-31 05:00:00 18.4 5 Sudoeste 10 Sudoeste 0 983.7 0 62
2017-08-31 04:00:00 18.9 6 Sudoeste 9 Sudoeste 0 983.7 0.3 57
2017-08-31 03:00:00 19.5 3 Sur 7 Sudeste 0 983.7 0.2 52
2017-08-31 02:00:00 20.1 2 Oeste 8 Noroeste 0 983.7 0.1 52
2017-08-31 01:00:00 20.4 3 Sur 7 Sudeste 0 983.4 0.4 50
2017-08-31 00:00:00 21.7 3 Sur 7 Sur 0 983.5 1 52
2017-08-30 23:00:00 22.6 3 Oeste 10 Oeste 0 983.6 1.2 48
2017-08-30 22:00:00 24 4 Oeste 13 Oeste 0 983 0.6 44
2017-08-30 21:00:00 26.2 3 Oeste 12 Oeste 0 982.5 -0.2 34
2017-08-30 20:00:00 28.1 5 Noroeste 18 Noroeste 0 982.4 -0.5 29
2017-08-30 19:00:00 28.8 5 Norte 18 Noroeste 0 982.4 -1.1 27
2017-08-30 18:00:00 29.1 5 Noroeste 20 Oeste 0 982.7 -1.2 26
2017-08-30 17:00:00 28.7 8 Noroeste 18 Noroeste 0 982.9 -1.6 27
2017-08-30 16:00:00 27.9 8 Oeste 21 Noroeste 0 983.5 -1.4 30
2017-08-30 15:00:00 27.2 7 Norte 21 Noroeste 0 983.9 -1.2 34
2017-08-30 14:00:00 26.3 6 Norte 13 Noroeste 0 984.5 -0.5 38
2017-08-30 13:00:00 26.4 3 Este 11 Sudeste 0 984.9 0 38
2017-08-30 12:00:00 24.4 3 Este 12 Noroeste 0 985.1 0.4 46
2017-08-30 11:00:00 21.2 3 Noroeste 9 Oeste 0 985 0.8 62
2017-08-30 10:00:00 18.7 3 Sur 8 Norte 0 984.9 1.6 75
2017-08-30 09:00:00 15.3 3 Nordeste 9 Noroeste 0 984.7 1.3 90
2017-08-30 08:00:00 14.8 4 Noroeste 8 Noroeste 0 984.2 1 88
2017-08-30 07:00:00 15.3 2 Noroeste 6 Noroeste 0 983.3 -0.1 84
2017-08-30 06:00:00 15.3 0 Calma 8 Sur 0 983.4 0 86
2017-08-30 05:00:00 15.6 3 Sur 10 Sudoeste 0 983.2 -0.4 87
2017-08-30 04:00:00 16 2 Sudoeste 8 Sudoeste 0 983.4 0.1 87
2017-08-30 03:00:00 16.2 2 Sudoeste 8 Oeste 0 983.4 0.5 86
2017-08-30 02:00:00 16.7 4 Sudoeste 12 Noroeste 0 983.6 1.1 84
2017-08-30 01:00:00 17.2 6 Sur 13 Sur 0 983.3 1.4 81
2017-08-30 00:00:00 17.6 5 Sudoeste 10 Sur 0 982.9 1.3 79
2017-08-29 23:00:00 18.8 0 Calma 9 Oeste 0 982.5 1.5 75
2017-08-29 22:00:00 19.8 5 Noroeste 9 Noroeste 0 981.9 1 73
2017-08-29 21:00:00 21.3 3 Sur 12 Sudoeste 0 981.6 0.2 64
2017-08-29 20:00:00 21.9 8 Sur 14 Sudoeste 0 981 0 64
2017-08-29 19:00:00 22.3 7 Sudoeste 16 Sudoeste 0.2 980.9 -0.1 62
2017-08-29 18:00:00 20.8 9 Sudoeste 21 Sudoeste 0.2 981.4 -0.4 70
2017-08-29 17:00:00 24.2 9 Sudoeste 18 Noroeste 0 981 -1.2 46
2017-08-29 16:00:00 24.7 7 Oeste 21 Noroeste 0 981 -1.8 42
2017-08-29 15:00:00 24.6 8 Oeste 22 Noroeste 0 981.8 -1.4 43
2017-08-29 14:00:00 25.4 8 Oeste 18 Sudoeste 0 982.2 -1.1 44
2017-08-29 13:00:00 24.6 7 Noroeste 17 Noroeste 0 982.8 -0.3 48
2017-08-29 12:00:00 23.2 6 Noroeste 15 Noroeste 0 983.2 0.5 56
2017-08-29 11:00:00 21.1 4 Norte 13 Norte 0 983.3 1.3 61
2017-08-29 10:00:00 18.7 2 Norte 9 Norte 0 983.1 1.1 79
2017-08-29 09:00:00 17.1 2 Sudoeste 4 Sudoeste 0 982.7 1 82
2017-08-29 08:00:00 16.1 3 Sudoeste 7 Sur 0 982 -0.2 85
2017-08-29 07:00:00 16.3 5 Sudoeste 9 Sudoeste 0 982 -0.6 86
2017-08-29 06:00:00 16.6 6 Sudoeste 11 Sur 0 981.7 -1.5 83
2017-08-29 05:00:00 17.4 2 Sur 7 Sudeste 0 982.2 -1.1 84
2017-08-29 04:00:00 17.6 3 Sudoeste 7 Sudoeste 0 982.6 -0.8 84
2017-08-29 03:00:00 18.2 3 Sudoeste 13 Sudoeste 0 983.2 0.1 81
2017-08-29 02:00:00 18.5 4 Oeste 15 Oeste 0 983.3 0.9 81
2017-08-29 01:00:00 18.9 5 Oeste 27 Oeste 0 983.4 2.4 78
2017-08-29 00:00:00 19.4 15 Oeste 41 Sudoeste 0 983.1 2.9 72
2017-08-28 23:00:00 21.7 7 Oeste 22 Oeste 0 982.4 2.6 55
2017-08-28 22:00:00 23.2 13 Oeste 30 Oeste 0 981 1.4 46
2017-08-28 21:00:00 25 10 Sudoeste 29 Oeste 0 980.2 0.5 42
2017-08-28 20:00:00 27.3 3 Nordeste 19 Nordeste 0 979.8 -0.4 36
2017-08-28 19:00:00 29.1 5 Norte 23 Nordeste 0 979.6 -1.3 31
2017-08-28 18:00:00 29.7 5 Norte 19 Norte 0 979.7 -1.9 27
2017-08-28 17:00:00 28.4 6 Norte 22 Norte 0 980.2 -1.9 27
2017-08-28 16:00:00 28.9 6 Norte 21 Noroeste 0 980.9 -1.8 28
2017-08-28 15:00:00 29.4 5 Norte 22 Noroeste 0 981.6 -1.7 32
2017-08-28 14:00:00 27.6 6 Norte 20 Sudoeste 0 982.1 -0.9 36
2017-08-28 13:00:00 25.6 7 Oeste 19 Oeste 0 982.7 -0.1 43
2017-08-28 12:00:00 24.7 4 Sudoeste 18 Oeste 0 983.3 1 48
2017-08-28 11:00:00 22.2 9 Oeste 22 Oeste 0 983 1.1 58
2017-08-28 10:00:00 20 4 Oeste 14 Oeste 0 982.8 1.1 66
2017-08-28 09:00:00 18.2 4 Sudoeste 11 Sudoeste 0 982.3 0.8 71
2017-08-28 08:00:00 18.1 5 Oeste 13 Oeste 0 981.9 0 71
2017-08-28 07:00:00 18.5 3 Noroeste 12 Oeste 0 981.7 -0.2 70
2017-08-28 06:00:00 19.3 6 Oeste 10 Oeste 0 981.5 0.1 68
2017-08-28 05:00:00 20.4 4 Sudoeste 15 Sudoeste 0 981.9 0.3 62
2017-08-28 04:00:00 21 7 Sudoeste 17 Sudoeste 0 981.9 1.3 60
2017-08-28 03:00:00 21.4 7 Sudoeste 17 Sudoeste 0 981.4 0.8 58
2017-08-28 02:00:00 22.4 7 Sudoeste 28 Sudoeste 0 981.6 1.4 53
2017-08-28 01:00:00 24.7 10 Sur 20 Sur 0 980.6 1.1 47
2017-08-28 00:00:00 25.3 4 Sudoeste 12 Sudoeste 0 980.6 1.8 40
2017-08-27 23:00:00 26.8 6 Sudoeste 26 Sudoeste 0 980.2 1.6 38
2017-08-27 22:00:00 28.3 12 Sudoeste 32 Sur 0 979.5 1.1 35
2017-08-27 21:00:00 29.4 14 Sudoeste 40 Sur 0 978.8 0.2 31
2017-08-27 20:00:00 30.5 21 Sur 41 Sudoeste 0 978.6 -0.5 27
2017-08-27 19:00:00 31.1 13 Sur 39 Sudeste 0 978.4 -1.2 29
2017-08-27 18:00:00 31.5 15 Sur 47 Sudoeste 0 978.6 -1.3 28
2017-08-27 17:00:00 33.1 18 Sur 53 Sudoeste 0 979.1 -1.9 25
2017-08-27 16:00:00 32.7 24 Sur 58 Sur 0 979.6 -1.5 28
2017-08-27 15:00:00 30.5 3 Sudeste 14 Noroeste 0 979.9 -1.4 34
2017-08-27 14:00:00 29 6 Noroeste 19 Noroeste 0 981 0 36
2017-08-27 13:00:00 29.9 12 Sur 29 Sur 0 981.1 0.4 34
2017-08-27 12:00:00 28.2 5 Sur 14 Sur 0 981.3 1.7 39
2017-08-27 11:00:00 25.6 2 Norte 9 Nordeste 0 981 0.5 45
2017-08-27 10:00:00 24.1 6 Sudeste 12 Sudeste 0 980.7 0.4 41
2017-08-27 09:00:00 24.1 3 Nordeste 14 Sudeste 0 979.6 -0.6 36
2017-08-27 08:00:00 22.9 2 Sur 9 Sur 0 980.5 0.6 38
2017-08-27 07:00:00 23.3 5 Sudoeste 12 Sudoeste 0 980.3 0.2 37
2017-08-27 06:00:00 23.2 8 Sudoeste 15 Sudoeste 0 980.2 0.7 37
2017-08-27 05:00:00 23.8 7 Sudoeste 20 Sudoeste 0 979.9 0 34
2017-08-27 04:00:00 24.6 9 Sudoeste 22 Sudoeste 0 980.1 -0.3 30
2017-08-27 03:00:00 26 7 Sur 16 Sudoeste 0 979.5 -0.4 27
2017-08-27 02:00:00 26.9 8 Sudoeste 23 Sudoeste 0 979.9 0.7 27
2017-08-27 01:00:00 27.5 6 Sudoeste 18 Sudoeste 0 980.4 1.4 25
2017-08-27 00:00:00 28.1 11 Sur 18 Sur 0 979.9 0.9 21
2017-08-26 23:00:00 28.7 5 Sudoeste 15 Sudeste 0 979.2 0.3 19
2017-08-26 22:00:00 31.4 8 Sudeste 22 Sudeste 0 979 -0.2 14
2017-08-26 21:00:00 33.3 11 Sudeste 33 Sudeste 0 979 -0.2 13
2017-08-26 20:00:00 35.3 17 Sudeste 37 Sudeste 0 978.9 -2 11
2017-08-26 19:00:00 35.6 17 Sudeste 38 Sudeste 0 979.2 -2 11
2017-08-26 18:00:00 35.7 17 Sudeste 33 Sudeste 0 979.2 -2.2 12
2017-08-26 17:00:00 32.2 3 Nordeste 16 Sudeste 0 980.9 -1.5 23
2017-08-26 16:00:00 34 8 Este 24 Sudeste 0 981.2 -2.2 13
2017-08-26 15:00:00 32.3 6 Este 17 Nordeste 0 981.4 -2.1 18
2017-08-26 14:00:00 30.3 6 Nordeste 16 Nordeste 0 982.4 -1.4 18
2017-08-26 13:00:00 30.1 4 Nordeste 23 Sudeste 0 983.4 0.4 15
2017-08-26 12:00:00 28.1 9 Sudeste 18 Sudeste 0 983.5 0.6 16
2017-08-26 11:00:00 24.9 4 Sur 13 Sudoeste 0 983.8 2.1 28
2017-08-26 10:00:00 21.6 4 Sudoeste 15 Noroeste 0 983 1.3 41
2017-08-26 09:00:00 19.7 3 Sudoeste 15 Oeste 0 982.9 1.1 60
2017-08-26 08:00:00 20.2 5 Norte 13 Norte 0 981.7 0.1 40
2017-08-26 07:00:00 20 3 Nordeste 13 Noroeste 0 981.7 -0.1 40
2017-08-26 06:00:00 21.3 0 Calma 5 Sudeste 0 981.8 0 30
2017-08-26 05:00:00 20.5 2 Este 5 Sudeste 0 981.6 -0.7 38
2017-08-26 04:00:00 21.3 2 Norte 7 Noroeste 0 981.8 -0.6 29
2017-08-26 03:00:00 23.3 4 Sudeste 8 Sudeste 0 981.8 -0.5 21
2017-08-26 02:00:00 24.4 5 Sur 15 Sur 0 982.3 0.4 19
2017-08-26 01:00:00 25.1 5 Sur 11 Sur 0 982.4 1 22
2017-08-26 00:00:00 25.2 5 Sur 10 Sur 0 982.3 1.5 21
2017-08-25 23:00:00 26.2 4 Sur 8 Sur 0 981.9 1.3 25
2017-08-25 22:00:00 27.5 3 Oeste 10 Oeste 0 981.4 0.7 28
2017-08-25 21:00:00 31.2 6 Oeste 16 Noroeste 0 980.8 -0.1 19
2017-08-25 20:00:00 34.2 7 Oeste 17 Noroeste 0 980.6 -0.8 17
2017-08-25 19:00:00 35.3 7 Noroeste 17 Noroeste 0 980.7 -1.3 15
2017-08-25 18:00:00 33.9 5 Noroeste 21 Norte 0 980.9 -1.7 17
2017-08-25 17:00:00 34.9 9 Noroeste 21 Noroeste 0 981.4 -1.8 16
2017-08-25 16:00:00 35.2 9 Noroeste 22 Oeste 0 982 -1.9 14
2017-08-25 15:00:00 35 4 Sudeste 13 Oeste 0 982.6 -1.4 18
2017-08-25 14:00:00 33 2 Nordeste 13 Norte 0 983.2 -0.9 20
2017-08-25 13:00:00 31.1 4 Noroeste 9 Oeste 0 983.9 0 21
2017-08-25 12:00:00 29.3 3 Norte 7 Nordeste 0 984 0.1 29
2017-08-25 11:00:00 26.6 3 Sudoeste 9 Sudoeste 0 984.1 0.6 29
2017-08-25 10:00:00 23.5 4 Sudoeste 14 Sur 0 983.9 0.5 38
2017-08-25 09:00:00 20.1 6 Sudoeste 12 Sur 0 983.9 0.3 44
2017-08-25 08:00:00 18.6 0 Calma 8 Sudoeste 0 983.5 0 49
2017-08-25 07:00:00 20.2 5 Sur 11 Sudoeste 0 983.4 -0.2 44
2017-08-25 06:00:00 20 5 Sudoeste 9 Sudoeste 0 983.6 -0.1 43
2017-08-25 05:00:00 20.6 3 Sudoeste 7 Sudoeste 0 983.5 -0.6 43
2017-08-25 04:00:00 21.2 3 Sur 8 Sudoeste 0 983.6 -0.5 37
2017-08-25 03:00:00 21.9 3 Sudoeste 9 Sudoeste 0 983.7 -0.3 39
2017-08-25 02:00:00 22.9 4 Sur 11 Sudoeste 0 984.1 0.4 33
2017-08-25 01:00:00 23.6 5 Sudoeste 13 Sudoeste 0 984.1 1.1 34
2017-08-25 00:00:00 24.5 6 Sudoeste 9 Sudoeste 0 984 1.7 34
2017-08-24 23:00:00 25.4 3 Sudoeste 8 Sudoeste 0 983.7 1.5 38
2017-08-24 22:00:00 27.4 2 Sudoeste 12 Oeste 0 983 0.6 29
2017-08-24 21:00:00 29.5 4 Oeste 13 Oeste 0 982.3 -0.4 24
2017-08-24 20:00:00 33.3 9 Oeste 26 Oeste 0 982.2 -0.8 14
2017-08-24 19:00:00 33.7 10 Oeste 31 Oeste 0 982.4 -1.1 13
2017-08-24 18:00:00 34.7 10 Noroeste 29 Noroeste 0 982.7 -1.2 14
2017-08-24 17:00:00 34.7 11 Noroeste 31 Noroeste 0 983 -1.2 16
2017-08-24 16:00:00 34.4 8 Oeste 28 Noroeste 0 983.5 -1.1 15
2017-08-24 15:00:00 33.6 11 Oeste 28 Oeste 0 983.9 -0.9 15
2017-08-24 14:00:00 31.1 10 Noroeste 22 Noroeste 0 984.2 -0.6 27
2017-08-24 13:00:00 28.8 7 Oeste 15 Noroeste 0 984.6 0 36
2017-08-24 12:00:00 25.7 5 Norte 11 Norte 0 984.8 0.5 47
2017-08-24 11:00:00 23.8 4 Oeste 12 Oeste 0 984.8 1 51
2017-08-24 10:00:00 21.1 5 Oeste 13 Oeste 0 984.6 1.2 60
2017-08-24 09:00:00 18.9 5 Sudoeste 12 Sudoeste 0 984.3 1.1 65
2017-08-24 08:00:00 18.6 5 Sudoeste 10 Sudoeste 0 983.8 0.8 64
2017-08-24 07:00:00 20 6 Sudoeste 11 Sudoeste 0 983.4 0.3 58
2017-08-24 06:00:00 21.3 4 Sudoeste 14 Oeste 0 983.2 0.1 53
2017-08-24 05:00:00 22.2 4 Sudoeste 12 Sudoeste 0 983 -0.1 50
2017-08-24 04:00:00 23.1 2 Sudoeste 9 Sudeste 0 983.1 0.2 49
2017-08-24 03:00:00 23.9 2 Sudoeste 16 Oeste 0 983.1 0.6 48
2017-08-24 02:00:00 24.7 3 Sudoeste 12 Sudoeste 0 983.1 1 43
2017-08-24 01:00:00 26 6 Sudoeste 17 Sudoeste 0 982.9 1.5 32
2017-08-24 00:00:00 26.8 4 Sudoeste 14 Sudoeste 0 982.5 1.5 29
2017-08-23 23:00:00 28.5 4 Sudoeste 13 Oeste 0 982.1 1.1 25
2017-08-23 22:00:00 30.1 5 Oeste 14 Oeste 0 981.4 0.3 23
2017-08-23 21:00:00 32.9 5 Oeste 20 Oeste 0 981 -0.3 19
2017-08-23 20:00:00 35.8 8 Oeste 27 Noroeste 0 981 -0.8 15
2017-08-23 19:00:00 37.6 9 Oeste 24 Noroeste 0 981.1 -1.2 15
2017-08-23 18:00:00 37.3 10 Noroeste 27 Noroeste 0 981.3 -1.6 16
2017-08-23 17:00:00 37.7 12 Noroeste 27 Noroeste 0 981.8 -1.7 15
2017-08-23 16:00:00 37.3 13 Noroeste 27 Oeste 0 982.3 -1.7 14
2017-08-23 15:00:00 37.2 8 Oeste 27 Noroeste 0 982.9 -1.3 20
2017-08-23 14:00:00 35.9 12 Oeste 28 Oeste 0 983.5 -0.6 22
2017-08-23 13:00:00 33.9 7 Oeste 18 Sudoeste 0 984 0.3 27
2017-08-23 12:00:00 31.2 8 Oeste 17 Sudoeste 0 984.2 0.7 32
2017-08-23 11:00:00 28.7 7 Oeste 16 Oeste 0 984.1 1.1 38
2017-08-23 10:00:00 26.6 6 Oeste 14 Oeste 0 983.7 1 39
2017-08-23 09:00:00 23.4 4 Oeste 11 Oeste 0 983.5 0.9 54
2017-08-23 08:00:00 22.8 6 Sudoeste 13 Sudoeste 0 983 0.4 54
2017-08-23 07:00:00 23 6 Sudoeste 13 Oeste 0 982.7 -0.1 56
2017-08-23 06:00:00 23.8 7 Oeste 13 Oeste 0 982.6 -0.2 52
2017-08-23 05:00:00 24.4 4 Sudoeste 15 Oeste 0 982.6 -0.3 49
2017-08-23 04:00:00 24.9 6 Sudoeste 14 Sudoeste 0 982.8 0 45
2017-08-23 03:00:00 25.8 6 Sudoeste 13 Sudoeste 0 982.8 0.4 41
2017-08-23 02:00:00 26.3 3 Sudoeste 9 Sudoeste 0 982.9 0.6 42
2017-08-23 01:00:00 27.1 4 Sudoeste 8 Sudoeste 0 982.8 1 40
2017-08-23 00:00:00 28.1 4 Sudoeste 11 Oeste 0 982.4 0.9 37
2017-08-22 23:00:00 29 2 Sudoeste 12 Oeste 0 982.3 0.8 37
2017-08-22 22:00:00 30.6 4 Oeste 14 Sudoeste 0 981.8 0.1 32
2017-08-22 21:00:00 33.3 5 Oeste 14 Oeste 0 981.5 -0.7 28
2017-08-22 20:00:00 37.1 6 Oeste 21 Sudoeste 0 981.5 -1.2 19
2017-08-22 19:00:00 38.8 10 Sudoeste 21 Sudoeste 0 981.7 -1.8 17
2017-08-22 18:00:00 38.6 8 Sudoeste 21 Oeste 0 982.2 -1.9 18
2017-08-22 17:00:00 38.2 6 Sur 21 Noroeste 0 982.7 -2 18
2017-08-22 16:00:00 37.5 6 Noroeste 20 Oeste 0 983.5 -1.8 20
2017-08-22 15:00:00 36.7 8 Sudoeste 22 Oeste 0 984.1 -1.5 22
2017-08-22 14:00:00 35.2 9 Oeste 22 Sudoeste 0 984.7 -0.9 25
2017-08-22 13:00:00 32.8 9 Sudoeste 24 Sudoeste 0 985.3 -0.2 33
2017-08-22 12:00:00 30.6 10 Oeste 24 Oeste 0 985.6 0.6 40
2017-08-22 11:00:00 28 10 Oeste 21 Oeste 0 985.6 1 52
2017-08-22 10:00:00 26.4 8 Oeste 21 Sudoeste 0 985.5 1.2 59
2017-08-22 09:00:00 23.9 7 Sudoeste 14 Sudoeste 0 985 1 68
2017-08-22 08:00:00 23.3 5 Sudoeste 13 Oeste 0 984.6 0.6 67
2017-08-22 07:00:00 24 5 Sudoeste 18 Sudoeste 0 984.3 0.8 63
2017-08-22 06:00:00 24.7 8 Sudoeste 14 Sudoeste 0 984 0.8 59
2017-08-22 05:00:00 25.9 4 Sudoeste 16 Oeste 0 984 1 54
2017-08-22 04:00:00 26.2 6 Sudoeste 13 Sudoeste 0 983.5 0.6 53
2017-08-22 03:00:00 27.1 4 Sudoeste 19 Sudoeste 0 983.2 0.6 48
2017-08-22 02:00:00 28.1 8 Oeste 17 Oeste 0 983 0.5 43
2017-08-22 01:00:00 28.7 6 Sudoeste 13 Sudoeste 0 982.9 1.2 42
2017-08-22 00:00:00 29.7 5 Sur 9 Sudoeste 0 982.6 1.3 38